Data for 07/15/2016

Time Sea-Level Adjusted Pressure Absolute Pressure Temperature Relative Humidity Dew Point   
(mb) (inHg) (mb) (inHg) (C) (F) (%) (C) (F)
00:05 1023 30.21 852 25.16 16.3 61.4 46 4.9 40.9
00:10 1023 30.21 852 25.16 16.3 61.4 47 5 41
00:15 1023 30.21 852 25.16 16.2 61.2 47 5 41.1
00:20 1023 30.21 852 25.16 16.2 61.1 47 5 41
00:25 1023 30.21 852 25.16 16.1 61 48 5.1 41.2
00:30 1023 30.21 852 25.16 16.1 60.9 48 5.2 41.3
00:35 1023 30.21 852 25.16 16 60.8 48 5.1 41.2
00:40 1023 30.21 852 25.16 15.9 60.7 48 5.2 41.3
00:45 1023 30.21 852 25.16 15.9 60.5 48 5.1 41.1
00:50 1023 30.21 852 25.16 15.8 60.5 49 5.1 41.3
00:55 1022 30.18 852 25.16 15.7 60.2 49 5.2 41.3
01:00 1022 30.18 852 25.16 15.6 60.1 50 5.2 41.4
01:05 1022 30.18 852 25.16 15.5 60 50 5.2 41.3
01:10 1022 30.18 852 25.16 15.5 59.9 50 5.2 41.3
01:15 1022 30.18 852 25.16 15.5 59.9 50 5.2 41.4
01:20 1022 30.18 852 25.16 15.4 59.7 50 5.2 41.4
01:25 1022 30.18 852 25.16 15.3 59.6 51 5.2 41.4
01:30 1022 30.18 852 25.16 15.3 59.5 51 5.2 41.4
01:35 1022 30.18 852 25.16 15.2 59.3 51 5.3 41.5
01:40 1022 30.18 852 25.16 15.1 59.3 52 5.3 41.6
01:45 1022 30.18 851 25.13 15.1 59.3 51 5.2 41.4
01:50 1022 30.18 851 25.13 15.1 59.2 52 5.4 41.6
01:55 1022 30.18 851 25.13 14.9 58.9 52 5.3 41.6
02:00 1022 30.18 851 25.13 14.9 58.8 53 5.4 41.7
02:05 1022 30.18 851 25.13 14.8 58.7 53 5.4 41.7
02:10 1022 30.18 851 25.13 14.8 58.6 53 5.4 41.6
02:15 1022 30.18 851 25.13 14.7 58.4 54 5.4 41.7
02:20 1022 30.18 851 25.13 14.7 58.4 53 5.4 41.7
02:25 1022 30.18 851 25.13 14.6 58.3 54 5.4 41.7
02:30 1022 30.18 851 25.13 14.7 58.4 53 5.4 41.6
02:35 1022 30.18 851 25.13 14.6 58.3 54 5.4 41.8
02:40 1022 30.18 851 25.13 14.6 58.3 54 5.4 41.8
02:45 1022 30.18 851 25.13 14.6 58.3 54 5.4 41.7
02:50 1022 30.18 851 25.13 14.5 58.1 54 5.5 41.8
02:55 1022 30.18 851 25.13 14.4 57.9 55 5.5 41.8
03:00 1022 30.18 851 25.13 14.3 57.7 55 5.4 41.8
03:05 1022 30.18 851 25.13 14.3 57.7 55 5.5 41.9
03:10 1022 30.18 851 25.13 14.2 57.6 55 5.5 41.9
03:15 1022 30.18 851 25.13 14.2 57.5 56 5.5 41.9
03:20 1022 30.18 851 25.13 14.1 57.3 56 5.5 41.9
03:25 1022 30.18 851 25.13 14 57.2 56 5.5 41.8
03:30 1022 30.18 851 25.13 14 57.2 56 5.5 41.9
03:35 1022 30.18 851 25.13 14 57.1 56 5.5 41.9
03:40 1022 30.18 851 25.13 13.9 57 56 5.4 41.8
03:45 1022 30.18 851 25.13 13.9 57 56 5.5 41.8
03:50 1022 30.18 851 25.13 13.9 56.9 57 5.4 41.8
03:55 1022 30.18 851 25.13 13.8 56.9 57 5.4 41.8
04:00 1022 30.18 851 25.13 13.8 56.8 57 5.5 42
04:05 1022 30.18 851 25.13 13.6 56.5 58 5.5 41.9
04:10 1022 30.18 851 25.13 13.6 56.5 57 5.4 41.7
04:15 1022 30.18 851 25.13 13.7 56.6 57 5.4 41.7
04:20 1022 30.18 851 25.13 13.7 56.6 57 5.4 41.8
04:25 1022 30.18 851 25.13 13.7 56.7 57 5.4 41.6
04:30 1022 30.18 851 25.13 13.8 56.8 57 5.3 41.6
04:35 1022 30.18 851 25.13 13.7 56.7 57 5.4 41.7
04:40 1022 30.18 851 25.13 13.6 56.6 57 5.4 41.7
04:45 1021 30.15 851 25.13 13.6 56.5 57 5.3 41.6
04:50 1021 30.15 851 25.13 13.7 56.6 57 5.3 41.5
04:55 1021 30.15 851 25.13 13.7 56.6 56 5.2 41.4
05:00 1021 30.15 851 25.13 13.8 56.8 56 5.3 41.5
05:05 1021 30.15 851 25.13 13.8 56.8 56 5.2 41.4
05:10 1021 30.15 851 25.13 13.7 56.6 57 5.3 41.6
05:15 1021 30.15 851 25.13 13.7 56.6 56 5.2 41.4
05:20 1021 30.15 851 25.13 13.7 56.7 56 5.2 41.3
05:25 1022 30.18 851 25.13 13.8 56.9 55 5.1 41.1
05:30 1021 30.15 851 25.13 14 57.1 55 5.1 41.3
05:35 1021 30.15 851 25.13 14 57.2 55 5.2 41.4
05:40 1021 30.15 851 25.13 13.9 57 56 5.3 41.6
05:45 1021 30.15 851 25.13 13.9 57 55 5.2 41.3
05:50 1021 30.15 851 25.13 14 57.2 55 5.2 41.3
05:55 1021 30.15 851 25.13 14.1 57.4 54 5.2 41.3
06:00 1021 30.15 851 25.13 14.2 57.6 54 5.1 41.2
06:05 1021 30.15 851 25.13 14.3 57.7 54 5.2 41.4
06:10 1021 30.15 851 25.13 14.4 57.9 52 4.9 40.7
06:15 1021 30.15 851 25.13 14.6 58.3 52 5 40.9
06:20 1021 30.15 851 25.13 14.7 58.5 52 5.1 41.1
06:25 1021 30.15 851 25.13 14.7 58.4 53 5.2 41.3
06:30 1021 30.15 850 25.1 14.6 58.3 53 5.1 41.2
06:35 1021 30.15 851 25.13 14.7 58.5 52 5.1 41.2
06:40 1021 30.15 851 25.13 14.8 58.7 52 5.1 41.2
06:45 1021 30.15 851 25.13 15 59 51 5.1 41.3
06:50 1021 30.15 850 25.1 15.2 59.3 51 5.1 41.2
06:55 1021 30.15 850 25.1 15.3 59.5 51 5.2 41.3
07:00 1021 30.15 850 25.1 15.5 59.8 50 5.2 41.3
07:05 1021 30.15 850 25.1 15.7 60.2 49 5.2 41.4
07:10 1021 30.15 850 25.1 15.9 60.5 48 5.1 41.2
07:15 1021 30.15 850 25.1 16.1 61 47 4.8 40.6
07:20 1021 30.15 850 25.1 16.4 61.4 47 5.1 41.1
07:25 1021 30.15 850 25.1 16.4 61.6 46 5 41
07:30 1021 30.15 850 25.1 16.8 62.3 46 5.4 41.7
07:35 1021 30.15 850 25.1 17.1 62.8 45 5.3 41.5
07:40 1021 30.15 850 25.1 17.2 62.9 45 5.1 41.2
07:45 1021 30.15 850 25.1 17.2 63 44 4.9 40.8
07:50 1021 30.15 850 25.1 17.3 63.2 44 5 40.9
07:55 1021 30.15 850 25.1 17.1 62.7 47 5.9 42.7
08:00 1021 30.15 850 25.1 16.8 62.3 47 5.7 42.2
08:05 1021 30.15 850 25.1 16.7 62 48 5.7 42.2
08:10 1021 30.15 850 25.1 17.1 62.8 47 5.8 42.5
08:15 1021 30.15 850 25.1 17.5 63.5 45 5.6 42.1
08:20 1021 30.15 850 25.1 18.1 64.5 43 5.4 41.7
08:25 1021 30.15 850 25.1 18.7 65.6 40 4.9 40.9
08:30 1020 30.12 850 25.1 18.7 65.6 41 5.2 41.4
08:35 1020 30.12 850 25.1 18.7 65.6 40 4.9 40.9
08:40 1020 30.12 850 25.1 18.8 65.8 40 5 41.1
08:45 1020 30.12 850 25.1 19 66.2 39 5 41
08:50 1020 30.12 850 25.1 19.1 66.4 38 4.5 40.2
08:55 1020 30.12 850 25.1 18.9 66.1 44 6.4 43.5
09:00 1020 30.12 850 25.1 18.5 65.3 42 5.6 42.1
09:05 1020 30.12 850 25.1 19 66.1 43 6.3 43.3
09:10 1020 30.12 850 25.1 18.8 65.9 43 6 42.7
09:15 1020 30.12 850 25.1 18.6 65.5 43 5.8 42.4
09:20 1020 30.12 850 25.1 19.2 66.6 41 5.9 42.6
09:25 1020 30.12 849 25.07 19.3 66.7 42 6 42.8
09:30 1020 30.12 849 25.07 19.6 67.3 40 5.9 42.5
09:35 1020 30.12 849 25.07 19.2 66.5 42 6.1 43
09:40 1020 30.12 849 25.07 19.9 67.9 38 5.4 41.8
09:45 1020 30.12 849 25.07 20.8 69.4 37 5.9 42.6
09:50 1020 30.12 849 25.07 20.5 68.8 39 6.3 43.3
09:55 1020 30.12 849 25.07 20.1 68.1 38 5.6 42.2
10:00 1020 30.12 849 25.07 20 67.9 40 6 42.7
10:05 1020 30.12 849 25.07 20.5 69 38 5.8 42.4
10:10 1020 30.12 849 25.07 21 69.8 36 5.6 42
10:15 1020 30.12 849 25.07 21.2 70.1 36 5.7 42.3
10:20 1020 30.12 849 25.07 21.4 70.5 36 5.8 42.5
10:25 1020 30.12 849 25.07 21.4 70.5 36 5.9 42.7
10:30 1020 30.12 849 25.07 20.9 69.6 37 5.6 42.1
10:35 1020 30.12 849 25.07 21.7 71.1 35 5.9 42.7
10:40 1020 30.12 849 25.07 22.1 71.7 35 6 42.8
10:45 1020 30.12 849 25.07 22.5 72.4 34 5.9 42.6
10:50 1020 30.12 849 25.07 22.9 73.2 33 6 42.9
10:55 1020 30.12 849 25.07 22.7 72.8 35 6.5 43.6
11:00 1020 30.12 849 25.07 22.4 72.3 32 5.2 41.4
11:05 1020 30.12 849 25.07 23.2 73.7 33 6.2 43.2
11:10 1020 30.12 849 25.07 22.5 72.6 34 6.2 43.2
11:15 1020 30.12 849 25.07 21.8 71.2 35 5.7 42.2
11:20 1020 30.12 849 25.07 22.9 73.2 33 5.9 42.6
11:25 1020 30.12 849 25.07 22.9 73.3 32 5.7 42.2
11:30 1020 30.12 849 25.07 23 73.5 32 5.7 42.2
11:35 1019 30.09 849 25.07 24.1 75.3 31 6.3 43.3
11:40 1019 30.09 849 25.07 24 75.1 32 6.5 43.7
11:45 1019 30.09 849 25.07 23.8 74.9 31 6.1 43
11:50 1019 30.09 848 25.04 23.5 74.4 32 6.3 43.3
11:55 1019 30.09 848 25.04 23.4 74.1 33 6.4 43.6
12:00 1019 30.09 848 25.04 23.8 74.9 30 5.6 42.1
12:05 1019 30.09 848 25.04 24.8 76.6 31 6.7 44.1
12:10 1019 30.09 848 25.04 24.4 75.9 29 5.6 42
12:15 1019 30.09 848 25.04 25.4 77.7 29 6.3 43.4
12:20 1019 30.09 848 25.04 26.1 78.9 27 5.9 42.6
12:25 1019 30.09 848 25.04 26.2 79.1 28 6.3 43.3
12:30 1019 30.09 848 25.04 25.5 77.8 29 6.5 43.7
12:35 1019 30.09 848 25.04 25.2 77.3 29 6 42.8
12:40 1019 30.09 848 25.04 25.4 77.7 28 5.8 42.5
12:45 1019 30.09 848 25.04 26.2 79.1 26 5.2 41.3
12:50 1018 30.06 848 25.04 26.3 79.4 25 5.2 41.4
12:55 1018 30.06 848 25.04 26.1 79 25 4.6 40.2
13:00 1018 30.06 848 25.04 25.6 78 25 4.5 40.1
13:05 1018 30.06 847 25.01 26.6 79.9 23 4.4 39.8
13:10 1018 30.06 847 25.01 27.2 81 24 5.1 41.2
13:15 1018 30.06 847 25.01 26.4 79.5 25 5.3 41.5
13:20 1018 30.06 847 25.01 26.7 80 23 3.9 39
13:25 1018 30.06 847 25.01 27.6 81.6 21 3.6 38.4
13:30 1018 30.06 847 25.01 26.9 80.4 23 4.5 40.1
13:35 1018 30.06 847 25.01 27.4 81.4 21 3.6 38.5
13:40 1018 30.06 847 25.01 28.3 83 21 3.9 39.1
13:45 1018 30.06 847 25.01 28.7 83.7 20 4.2 39.6
13:50 1018 30.06 847 25.01 28.6 83.4 19 3.3 37.9
13:55 1018 30.06 847 25.01 28.2 82.7 21 3.8 38.8
14:00 1017 30.03 847 25.01 26.5 79.7 22 3.6 38.4
14:05 1017 30.03 847 25.01 26.3 79.3 23 3.8 38.9
14:10 1017 30.03 846 24.98 26.7 80 21 2.7 36.8
14:15 1017 30.03 846 24.98 26.8 80.3 21 2.8 37.1
14:20 1017 30.03 846 24.98 26.1 79 21 2.5 36.4
14:25 1017 30.03 846 24.98 26.3 79.3 21 2.3 36.1
14:30 1017 30.03 846 24.98 27.4 81.3 19 2 35.6
14:35 1017 30.03 846 24.98 28 82.4 19 2.3 36.1
14:40 1016 30 846 24.98 28.1 82.6 19 2.9 37.2
14:45 1016 30 846 24.98 27.7 81.8 19 2 35.6
14:50 1016 30 845 24.95 27.4 81.4 19 2.2 35.9
14:55 1016 30 845 24.95 27.3 81.1 19 1.6 34.8
15:00 1016 30 845 24.95 27.2 80.9 19 1.8 35.3
15:05 1016 30 845 24.95 27.3 81.1 19 2.3 36.1
15:10 1016 30 845 24.95 27.4 81.4 19 1.8 35.3
15:15 1015 29.97 845 24.95 27.4 81.3 18 1.3 34.3
15:20 1015 29.97 845 24.95 28 82.4 17 0.7 33.3
15:25 1015 29.97 844 24.92 28 82.3 15 -0.9 30.3
15:30 1015 29.97 844 24.92 28.5 83.3 14 -1.5 29.3
15:35 1015 29.97 844 24.92 28.7 83.6 15 0.2 32.3
15:40 1015 29.97 844 24.92 28.1 82.6 17 0.8 33.5
15:45 1015 29.97 844 24.92 27.8 82.1 16 0.4 32.7
15:50 1015 29.97 844 24.92 27.5 81.4 17 0.4 32.7
15:55 1015 29.97 844 24.92 27.2 81 18 1.4 34.5
16:00 1015 29.97 844 24.92 27 80.6 19 1.8 35.2
16:05 1015 29.97 844 24.92 26.6 79.8 18 0.9 33.6
16:10 1015 29.97 844 24.92 26.3 79.3 20 1.6 34.9
16:15 1015 29.97 844 24.92 26 78.8 23 3.4 38.1
16:20 1015 29.97 844 24.92 25.5 77.8 24 3.8 38.8
16:25 1015 29.97 844 24.92 25 77 25 3.8 38.8
16:30 1015 29.97 845 24.95 24.9 76.8 25 4 39.1
16:35 1016 30 845 24.95 24.6 76.2 24 2.8 37.1
16:40 1016 30 845 24.95 23.4 74.1 27 3.4 38.1
16:45 1016 30 845 24.95 21.2 70.1 47 9.7 49.5
16:50 1016 30 846 24.98 17.8 64.1 60 10.1 50.3
16:55 1016 30 846 24.98 17.1 62.8 60 9.4 48.9
17:00 1017 30.03 846 24.98 17.2 62.9 62 9.9 49.9
17:05 1017 30.03 847 25.01 17.4 63.3 57 8.9 48
17:10 1017 30.03 846 24.98 18 64.5 56 9.3 48.8
17:15 1017 30.03 846 24.98 18.1 64.5 58 9.8 49.7
17:20 1017 30.03 846 24.98 17.9 64.3 59 9.9 49.8
17:25 1017 30.03 846 24.98 17.7 63.9 58 9.4 48.9
17:30 1017 30.03 846 24.98 17.7 63.9 61 10.1 50.2
17:35 1016 30 846 24.98 17.6 63.7 61 10 50.1
17:40 1016 30 846 24.98 17.6 63.7 58 9.4 48.9
17:45 1016 30 846 24.98 17.7 63.9 60 9.9 49.8
17:50 1017 30.03 846 24.98 17.7 63.8 58 9.5 49.1
17:55 1017 30.03 846 24.98 17.7 63.9 59 9.8 49.6
18:00 1017 30.03 846 24.98 17.8 64 58 9.4 49
18:05 1017 30.03 846 24.98 17.8 64 61 10.2 50.3
18:10 1017 30.03 846 24.98 17.6 63.7 59 9.5 49.2
18:15 1017 30.03 846 24.98 17.6 63.7 57 9.1 48.3
18:20 1017 30.03 846 24.98 17.6 63.7 59 9.6 49.3
18:25 1016 30 846 24.98 17.5 63.5 58 9.2 48.5
18:30 1016 30 846 24.98 17.5 63.5 55 8.4 47.1
18:35 1016 30 846 24.98 17.6 63.7 57 9 48.1
18:40 1017 30.03 846 24.98 17.5 63.6 56 8.8 47.9
18:45 1017 30.03 846 24.98 17.7 63.9 55 8.7 47.7
18:50 1017 30.03 846 24.98 17.9 64.2 52 8.1 46.6
18:55 1017 30.03 846 24.98 18 64.4 53 8.3 46.9
19:00 1017 30.03 846 24.98 18 64.5 50 7.5 45.5
19:05 1016 30 846 24.98 18.1 64.6 50 7.8 46
19:10 1016 30 846 24.98 18.1 64.6 50 7.5 45.5
19:15 1016 30 845 24.95 18.2 64.8 48 7.3 45.1
19:20 1016 30 845 24.95 18.5 65.2 45 6.4 43.5
19:25 1016 30 845 24.95 18.7 65.6 44 6.2 43.1
19:30 1016 30 845 24.95 18.7 65.7 42 5.6 42.1
19:35 1016 30 845 24.95 18.7 65.7 43 6.2 43.1
19:40 1016 30 845 24.95 18.5 65.2 45 6.4 43.5
19:45 1016 30 845 24.95 18.2 64.7 46 6.4 43.6
19:50 1016 30 845 24.95 18.1 64.5 47 6.7 44
19:55 1016 30 845 24.95 17.9 64.3 47 6.5 43.7
20:00 1016 30 845 24.95 18.1 64.5 48 6.9 44.4
20:05 1016 30 845 24.95 18 64.4 46 6.2 43.2
20:10 1016 30 845 24.95 18 64.4 46 6.4 43.5
20:15 1016 30 845 24.95 17.9 64.1 49 7 44.7
20:20 1016 30 845 24.95 17.8 64 48 6.6 43.9
20:25 1016 30 845 24.95 17.8 64 49 7.1 44.9
20:30 1016 30 845 24.95 17.7 63.9 48 6.8 44.2
20:35 1016 30 845 24.95 17.7 63.9 50 7.2 45
20:40 1016 30 846 24.98 17.7 63.8 48 6.7 44
20:45 1016 30 846 24.98 17.8 64 48 6.8 44.3
20:50 1016 30 846 24.98 17.6 63.7 48 6.6 43.9
20:55 1016 30 846 24.98 17.8 64.1 46 6.2 43.2
21:00 1016 30 846 24.98 17.7 63.9 46 6.2 43.1
21:05 1016 30 846 24.98 17.6 63.6 49 7 44.5
21:10 1017 30.03 846 24.98 17.3 63.2 50 7 44.6
21:15 1017 30.03 846 24.98 17.2 62.9 50 6.7 44.1
21:20 1017 30.03 846 24.98 17.3 63.2 49 6.7 44.1
21:25 1017 30.03 846 24.98 17.3 63.1 50 6.9 44.4
21:30 1017 30.03 846 24.98 17.2 63 51 7 44.6
21:35 1017 30.03 846 24.98 17.2 62.9 49 6.5 43.8
21:40 1017 30.03 846 24.98 17.3 63.1 50 6.8 44.2
21:45 1017 30.03 846 24.98 17 62.6 53 7.6 45.6
21:50 1017 30.03 846 24.98 16.7 62.1 54 7.3 45.2
21:55 1017 30.03 846 24.98 16.6 61.9 52 6.8 44.2
22:00 1017 30.03 846 24.98 16.6 61.8 54 7.3 45.1
22:05 1017 30.03 847 25.01 16.3 61.3 58 8.2 46.7
22:10 1018 30.06 847 25.01 16.1 61 60 8.3 47
22:15 1017 30.03 847 25.01 16.2 61.1 59 8.3 47
22:20 1017 30.03 846 24.98 16.2 61.2 59 8.2 46.8
22:25 1017 30.03 846 24.98 16.3 61.3 58 8 46.4
22:30 1016 30 846 24.98 16.4 61.5 55 7.4 45.2
22:35 1016 30 845 24.95 16.8 62.2 51 6.7 44.1
22:40 1016 30 845 24.95 16.8 62.3 51 6.8 44.2
22:45 1016 30 845 24.95 16.6 61.9 54 7.3 45.2
22:50 1016 30 845 24.95 16.3 61.4 54 7.2 44.9
22:55 1016 30 845 24.95 16.3 61.3 54 7.2 44.9
23:00 1016 30 845 24.95 16.1 61 54 7 44.7
23:05 1016 30 845 24.95 16.1 60.9 55 7.2 45
23:10 1016 30 845 24.95 15.9 60.5 57 7.5 45.5
23:15 1016 30 845 24.95 15.6 60.1 59 7.6 45.7
23:20 1016 30 846 24.98 15.4 59.7 60 7.7 45.9
23:25 1017 30.03 846 24.98 15.2 59.4 61 7.8 46
23:30 1017 30.03 846 24.98 15.1 59.2 61 7.8 46.1
23:35 1017 30.03 846 24.98 15 59 62 8 46.4
23:40 1017 30.03 846 24.98 14.9 58.8 63 8 46.4
23:45 1017 30.03 846 24.98 14.8 58.6 64 8 46.3
23:50 1017 30.03 846 24.98 14.7 58.5 64 8.1 46.5
23:55 1017 30.03 846 24.98 14.6 58.3 65 8.1 46.6
24:00 1017 30.03 846 24.98 14.6 58.2 65 8.2 46.8